Time;durP1;ratioP1;P1;durP2;ratioP2;P2;SDS_P1;SDS_P2;PMS_P1;PMS_P2;Temp;Humidity;BMP_temperature;BMP_pressure;BME280_temperature;BME280_humidity;BME280_pressure;Samples;Min_cycle;Max_cycle;Signal;HPM_P1;HPM_P2
2023/07/10 00:00:47;;;;;;;12.97;7.97;;;;;;;21.46;100.00;101648.88;5005525;28;20042;-75
2023/07/10 00:03:13;;;;;;;13.18;7.20;;;;;;;21.42;100.00;101651.09;5002732;28;20099;-74
2023/07/10 00:05:38;;;;;;;13.90;7.88;;;;;;;21.39;100.00;101664.69;4985801;28;20053;-75
2023/07/10 00:08:04;;;;;;;14.90;8.07;;;;;;;21.35;100.00;101666.91;5000638;28;20030;-75
2023/07/10 00:10:30;;;;;;;12.35;7.63;;;;;;;21.33;100.00;101670.78;5018724;28;20499;-74
2023/07/10 00:12:55;;;;;;;14.10;7.30;;;;;;;21.26;100.00;101664.72;5003865;28;20435;-75
2023/07/10 00:15:22;;;;;;;15.68;8.68;;;;;;;21.25;100.00;101671.81;5007777;28;20187;-76
2023/07/10 00:17:50;;;;;;;17.20;9.32;;;;;;;21.25;100.00;101682.38;5008824;28;20489;-74
2023/07/10 00:20:26;;;;;;;17.42;8.75;;;;;;;21.24;100.00;101685.22;5005040;28;20046;-75
2023/07/10 00:22:51;;;;;;;19.38;10.50;;;;;;;21.27;100.00;101674.25;5011677;28;20029;-77
2023/07/10 00:25:18;;;;;;;15.07;8.48;;;;;;;21.17;100.00;101672.03;4986222;28;20129;-73
2023/07/10 00:27:45;;;;;;;17.38;9.95;;;;;;;21.07;100.00;101671.66;4987938;28;20061;-75
2023/07/10 00:30:18;;;;;;;16.13;9.68;;;;;;;21.09;100.00;101672.25;5004351;28;20519;-74
2023/07/10 00:32:45;;;;;;;12.80;9.02;;;;;;;21.01;100.00;101673.28;5004314;28;20669;-74
2023/07/10 00:35:16;;;;;;;16.38;9.32;;;;;;;20.98;100.00;101669.22;5001193;28;20041;-76
2023/07/10 00:37:47;;;;;;;15.05;9.32;;;;;;;20.94;100.00;101669.81;4989128;28;20029;-74
2023/07/10 00:40:22;;;;;;;11.90;8.45;;;;;;;20.88;100.00;101660.91;5008627;28;20516;-76
2023/07/10 00:43:01;;;;;;;12.85;8.25;;;;;;;20.92;100.00;101667.38;5002021;28;20026;-76
2023/07/10 00:45:27;;;;;;;16.38;10.27;;;;;;;20.97;100.00;101672.06;4990385;28;20040;-74
2023/07/10 00:48:03;;;;;;;13.20;10.23;;;;;;;20.91;100.00;101672.88;5000699;28;20105;-75
2023/07/10 00:50:38;;;;;;;14.35;9.82;;;;;;;20.88;100.00;101668.81;5018363;28;20064;-76
2023/07/10 00:53:11;;;;;;;14.98;10.63;;;;;;;20.93;100.00;101669.03;4992179;28;20034;-75
2023/07/10 00:55:38;;;;;;;13.93;9.57;;;;;;;20.95;100.00;101659.09;5002368;28;20073;-77
2023/07/10 00:58:32;;;;;;;16.80;12.07;;;;;;;20.94;100.00;101656.66;5008289;28;20029;-75
2023/07/10 01:00:59;;;;;;;16.35;11.02;;;;;;;20.94;100.00;101656.66;4985817;28;20050;-74
2023/07/10 01:03:24;;;;;;;18.35;10.85;;;;;;;20.94;100.00;101654.00;4985852;28;20184;-77
2023/07/10 01:05:50;;;;;;;12.88;9.80;;;;;;;20.91;100.00;101636.78;5006227;28;20030;-76
2023/07/10 01:08:15;;;;;;;14.88;9.55;;;;;;;20.89;100.00;101643.25;5007764;28;20477;-76
2023/07/10 01:10:41;;;;;;;18.42;12.52;;;;;;;20.90;100.00;101643.06;4984842;28;20049;-73
2023/07/10 01:13:06;;;;;;;19.10;12.73;;;;;;;20.90;100.00;101647.53;5002972;28;20083;-75
2023/07/10 01:15:32;;;;;;;21.45;14.43;;;;;;;20.87;100.00;101655.84;5007115;28;20052;-76
2023/07/10 01:17:58;;;;;;;21.63;11.85;;;;;;;20.85;100.00;101657.88;5005178;28;20014;-78
2023/07/10 01:20:44;;;;;;;16.52;11.48;;;;;;;20.87;100.00;101654.03;4991135;28;20049;-75
2023/07/10 01:23:10;;;;;;;16.05;9.75;;;;;;;20.89;100.00;101657.28;4989332;28;20054;-74
2023/07/10 01:25:51;;;;;;;14.73;10.45;;;;;;;20.92;100.00;101669.22;5005274;28;20045;-76
2023/07/10 01:28:20;;;;;;;16.10;11.63;;;;;;;20.95;100.00;101664.34;4990440;28;20485;-76
2023/07/10 01:30:50;;;;;;;21.67;12.50;;;;;;;20.98;100.00;101661.31;5005727;28;20409;-76
2023/07/10 01:33:24;;;;;;;20.33;9.75;;;;;;;20.97;100.00;101654.41;5007485;28;20025;-77
2023/07/10 01:35:53;;;;;;;18.40;13.13;;;;;;;20.95;100.00;101653.00;5008891;28;20575;-76
2023/07/10 01:38:18;;;;;;;26.48;15.20;;;;;;;20.93;100.00;101649.78;5010133;28;20095;-76
2023/07/10 01:40:52;;;;;;;19.92;12.82;;;;;;;20.90;100.00;101655.44;5006906;28;20517;-75
2023/07/10 01:43:18;;;;;;;20.00;11.80;;;;;;;20.88;100.00;101636.38;5004233;28;20026;-76
2023/07/10 01:45:47;;;;;;;21.48;14.13;;;;;;;20.86;100.00;101630.50;5007382;28;20124;-76
2023/07/10 01:48:16;;;;;;;21.00;13.20;;;;;;;20.80;100.00;101627.66;4990705;28;20026;-76
2023/07/10 01:50:43;;;;;;;24.30;16.40;;;;;;;20.81;100.00;101644.28;5018477;28;20033;-74
2023/07/10 01:53:10;;;;;;;20.52;13.82;;;;;;;20.79;100.00;101665.59;4991227;28;20030;-74
2023/07/10 01:55:45;;;;;;;23.73;16.48;;;;;;;20.74;100.00;101673.28;5001959;28;20184;-76
2023/07/10 01:58:11;;;;;;;28.50;17.42;;;;;;;20.71;100.00;101675.50;4988986;28;20084;-75
2023/07/10 02:00:38;;;;;;;28.67;16.85;;;;;;;20.74;100.00;101688.28;4990920;28;20130;-76
2023/07/10 02:03:03;;;;;;;29.35;19.95;;;;;;;20.63;100.00;101688.88;5005279;28;20124;-75
2023/07/10 02:05:29;;;;;;;30.92;20.25;;;;;;;20.58;100.00;101684.97;5008227;28;20509;-74
2023/07/10 02:07:54;;;;;;;31.80;20.85;;;;;;;20.53;100.00;101687.44;5004664;28;20030;-76
2023/07/10 02:10:20;;;;;;;29.27;19.55;;;;;;;20.53;100.00;101689.22;5007826;28;20040;-76
2023/07/10 02:12:46;;;;;;;39.03;24.08;;;;;;;20.56;100.00;101691.47;4992003;28;20503;-76
2023/07/10 02:15:12;;;;;;;33.42;23.20;;;;;;;20.52;100.00;101682.34;5008575;28;20053;-76
2023/07/10 02:17:38;;;;;;;27.85;19.13;;;;;;;20.43;100.00;101695.69;4991585;28;20114;-77
2023/07/10 02:20:05;;;;;;;36.35;23.05;;;;;;;20.38;100.00;101697.31;5012090;28;20112;-76
2023/07/10 02:22:31;;;;;;;32.25;21.45;;;;;;;20.36;100.00;101692.25;5011727;28;20030;-75
2023/07/10 02:24:56;;;;;;;34.50;22.05;;;;;;;20.42;100.00;101709.09;5004576;28;20839;-76
2023/07/10 02:27:22;;;;;;;32.47;21.60;;;;;;;20.34;100.00;101704.81;4993070;28;20623;-76
2023/07/10 02:29:47;;;;;;;40.42;22.83;;;;;;;20.30;100.00;101718.56;5010880;28;20072;-75
2023/07/10 02:32:13;;;;;;;30.08;20.88;;;;;;;20.32;100.00;101725.25;5014383;28;20493;-75
2023/07/10 02:34:38;;;;;;;35.70;21.30;;;;;;;20.21;100.00;101731.91;5010342;28;20443;-77
2023/07/10 02:37:04;;;;;;;29.23;20.63;;;;;;;20.18;100.00;101736.75;5006863;28;20045;-75
2023/07/10 02:39:30;;;;;;;35.90;20.42;;;;;;;20.19;100.00;101735.75;5006631;28;20160;-75
2023/07/10 02:41:55;;;;;;;33.70;19.10;;;;;;;20.21;100.00;101733.72;4995292;28;20033;-76
2023/07/10 02:44:20;;;;;;;33.30;20.05;;;;;;;20.16;100.00;101728.25;5007776;28;20037;-74
2023/07/10 02:46:46;;;;;;;36.70;21.77;;;;;;;20.10;100.00;101732.47;5009722;28;20392;-76
2023/07/10 02:49:12;;;;;;;29.63;18.70;;;;;;;20.02;100.00;101725.56;5007900;28;20050;-74
2023/07/10 02:51:39;;;;;;;32.25;17.50;;;;;;;19.99;100.00;101728.59;5006164;28;20032;-73
2023/07/10 02:54:09;;;;;;;25.92;16.42;;;;;;;19.99;100.00;101725.94;5006944;28;20038;-72
2023/07/10 02:56:35;;;;;;;33.13;19.60;;;;;;;19.94;100.00;101736.25;5019744;28;20053;-74
2023/07/10 02:59:01;;;;;;;28.05;17.00;;;;;;;19.92;100.00;101732.19;5010132;28;20497;-73
2023/07/10 03:01:26;;;;;;;31.35;18.00;;;;;;;19.87;100.00;101735.41;5008132;28;20044;-74
2023/07/10 03:03:51;;;;;;;27.73;17.02;;;;;;;19.84;100.00;101743.69;4986705;28;20053;-74
2023/07/10 03:06:17;;;;;;;28.83;17.67;;;;;;;19.88;100.00;101744.13;5005465;28;20443;-74
2023/07/10 03:08:43;;;;;;;23.33;15.25;;;;;;;19.84;100.00;101743.69;5008350;28;20152;-74
2023/07/10 03:11:14;;;;;;;31.00;14.60;;;;;;;19.78;100.00;101733.97;5007459;28;20408;-75
2023/07/10 03:13:39;;;;;;;23.80;14.35;;;;;;;19.77;100.00;101732.31;5005758;28;20065;-74
2023/07/10 03:16:09;;;;;;;29.85;16.17;;;;;;;19.74;100.00;101720.38;4990490;28;20556;-75
2023/07/10 03:18:35;;;;;;;23.58;13.18;;;;;;;19.72;100.00;101732.91;5008148;28;20064;-75
2023/07/10 03:21:01;;;;;;;28.75;15.30;;;;;;;19.68;100.00;101738.72;5004569;28;20023;-75
2023/07/10 03:23:26;;;;;;;22.20;12.77;;;;;;;19.69;100.00;101741.16;5008255;28;20029;-74
2023/07/10 03:25:52;;;;;;;24.02;13.32;;;;;;;19.65;100.00;101738.09;5009604;28;20057;-74
2023/07/10 03:28:18;;;;;;;26.65;14.18;;;;;;;19.59;100.00;101749.41;5006006;28;20030;-75
2023/07/10 03:30:43;;;;;;;29.77;13.88;;;;;;;19.55;100.00;101742.06;4992458;28;20049;-74
2023/07/10 03:33:14;;;;;;;19.55;12.60;;;;;;;19.58;100.00;101747.75;5006068;28;20033;-74
2023/07/10 03:35:39;;;;;;;23.10;12.73;;;;;;;19.55;100.00;101750.78;5018253;28;20583;-74
2023/07/10 03:38:05;;;;;;;26.02;13.20;;;;;;;19.58;100.00;101752.22;5009164;28;20083;-73
2023/07/10 03:40:30;;;;;;;18.52;11.35;;;;;;;19.53;100.00;101755.41;5004366;28;20424;-74
2023/07/10 03:42:56;;;;;;;20.33;10.05;;;;;;;19.50;100.00;101747.13;4989717;28;20034;-74
2023/07/10 03:45:21;;;;;;;24.42;12.52;;;;;;;19.51;100.00;101751.34;5006844;28;20274;-75
2023/07/10 03:47:47;;;;;;;21.30;10.13;;;;;;;19.45;100.00;101740.59;5006035;28;20110;-74
2023/07/10 03:50:12;;;;;;;17.73;9.80;;;;;;;19.44;100.00;101746.06;5007929;28;20045;-74
2023/07/10 03:52:38;;;;;;;19.50;11.10;;;;;;;19.42;100.00;101745.41;4994999;28;20022;-73
2023/07/10 03:55:04;;;;;;;17.75;9.15;;;;;;;19.42;100.00;101754.13;5007532;28;20049;-74
2023/07/10 03:57:29;;;;;;;18.02;10.25;;;;;;;19.43;100.00;101763.63;5005796;28;20034;-74
2023/07/10 03:59:55;;;;;;;20.13;11.00;;;;;;;19.40;100.00;101764.03;5027497;28;20516;-74
2023/07/10 04:02:20;;;;;;;23.50;11.48;;;;;;;19.37;100.00;101756.53;5003482;28;20389;-73
2023/07/10 04:04:46;;;;;;;17.60;9.38;;;;;;;19.35;100.00;101773.50;5005778;28;20049;-74
2023/07/10 04:07:11;;;;;;;19.17;8.85;;;;;;;19.31;100.00;101767.81;5009609;28;20397;-74
2023/07/10 04:09:36;;;;;;;25.73;10.35;;;;;;;19.32;100.00;101763.34;5002970;28;20108;-72
2023/07/10 04:12:02;;;;;;;15.85;10.50;;;;;;;19.29;100.00;101774.25;5006087;28;20030;-74
2023/07/10 04:14:27;;;;;;;14.48;9.18;;;;;;;19.29;100.00;101766.34;4985059;28;20464;-74
2023/07/10 04:16:53;;;;;;;17.63;8.85;;;;;;;19.30;100.00;101768.81;5007457;28;20030;-73
2023/07/10 04:19:21;;;;;;;20.40;10.05;;;;;;;19.30;100.00;101771.44;5006468;28;20664;-72
2023/07/10 04:21:47;;;;;;;20.15;9.68;;;;;;;19.28;100.00;101778.69;5006869;28;20432;-73
2023/07/10 04:24:12;;;;;;;19.83;10.52;;;;;;;19.26;100.00;101776.25;5013467;28;20049;-74
2023/07/10 04:26:38;;;;;;;20.95;8.57;;;;;;;19.23;100.00;101771.41;5008657;28;20499;-72
2023/07/10 04:29:06;;;;;;;19.40;10.27;;;;;;;19.20;100.00;101774.38;5004770;28;20132;-73
2023/07/10 04:31:32;;;;;;;16.15;8.40;;;;;;;19.15;100.00;101781.22;5004061;28;20062;-74
2023/07/10 04:33:59;;;;;;;18.88;9.82;;;;;;;19.20;100.00;101777.03;5008658;28;20206;-74
2023/07/10 04:36:25;;;;;;;15.50;8.82;;;;;;;19.16;100.00;101781.03;5006140;28;20036;-73
2023/07/10 04:38:51;;;;;;;17.95;8.45;;;;;;;19.17;100.00;101782.66;5004576;28;20112;-73
2023/07/10 04:41:19;;;;;;;17.65;8.80;;;;;;;19.19;100.00;101778.03;5008376;28;20068;-73
2023/07/10 04:43:46;;;;;;;20.15;10.13;;;;;;;19.19;100.00;101775.41;5004136;28;20141;-74
2023/07/10 04:46:13;;;;;;;16.58;8.20;;;;;;;19.19;100.00;101783.28;4993475;28;20382;-72
2023/07/10 04:48:39;;;;;;;13.25;7.40;;;;;;;19.20;100.00;101792.00;5005740;28;20507;-73
2023/07/10 04:51:07;;;;;;;18.83;8.55;;;;;;;19.21;100.00;101781.28;5008233;28;20048;-74
2023/07/10 04:53:33;;;;;;;17.45;8.23;;;;;;;19.22;100.00;101785.53;5008626;28;20030;-73
2023/07/10 04:56:04;;;;;;;14.52;8.85;;;;;;;19.23;100.00;101784.53;5001603;28;20602;-74
2023/07/10 04:58:49;;;;;;;17.83;8.60;;;;;;;19.24;100.00;101785.34;5005812;28;20087;-73
2023/07/10 05:01:16;;;;;;;14.63;7.30;;;;;;;19.28;100.00;101785.78;5006466;28;20025;-73
2023/07/10 05:03:41;;;;;;;15.00;7.78;;;;;;;19.34;100.00;101791.06;5008871;28;20683;-73
2023/07/10 05:06:07;;;;;;;13.23;8.32;;;;;;;19.39;100.00;101801.84;5006779;28;20049;-73
2023/07/10 05:08:32;;;;;;;12.70;8.45;;;;;;;19.39;100.00;101801.03;5004423;28;20037;-73
2023/07/10 05:10:58;;;;;;;19.55;8.38;;;;;;;19.39;100.00;101811.56;5009881;28;20014;-73
2023/07/10 05:13:27;;;;;;;13.50;9.00;;;;;;;19.39;100.00;101809.72;5006151;28;20034;-72
2023/07/10 05:15:55;;;;;;;16.08;9.15;;;;;;;19.36;100.00;101815.38;5007283;28;20443;-74
2023/07/10 05:18:20;;;;;;;21.20;9.05;;;;;;;19.34;100.00;101814.75;5003996;28;20084;-73
2023/07/10 05:20:48;;;;;;;10.75;6.65;;;;;;;19.35;100.00;101813.75;5011497;28;20034;-72
2023/07/10 05:23:15;;;;;;;20.95;10.00;;;;;;;19.40;100.00;101814.00;5004525;28;20048;-73
2023/07/10 05:25:40;;;;;;;16.88;8.50;;;;;;;19.35;100.00;101813.75;5009216;28;20058;-72
2023/07/10 05:28:06;;;;;;;17.52;8.75;;;;;;;19.31;100.00;101816.94;5007190;28;20022;-74
2023/07/10 05:30:34;;;;;;;17.75;8.52;;;;;;;19.32;100.00;101818.56;5001328;28;20699;-72
2023/07/10 05:32:59;;;;;;;21.73;9.25;;;;;;;19.34;100.00;101821.81;5005882;28;20124;-72
2023/07/10 05:35:25;;;;;;;14.55;8.45;;;;;;;19.29;100.00;101821.56;5007478;28;20041;-72
2023/07/10 05:37:50;;;;;;;18.40;10.00;;;;;;;19.26;100.00;101815.69;5007870;28;20442;-72
2023/07/10 05:40:16;;;;;;;15.05;7.68;;;;;;;19.23;100.00;101813.47;5009610;28;20468;-72
2023/07/10 05:42:43;;;;;;;12.55;6.63;;;;;;;19.28;100.00;101820.75;4992941;28;20084;-72
2023/07/10 05:45:08;;;;;;;13.38;7.15;;;;;;;19.31;100.00;101825.66;5009080;28;20099;-72
2023/07/10 05:47:34;;;;;;;17.42;8.95;;;;;;;19.35;100.00;101826.91;5011936;28;20042;-73
2023/07/10 05:49:59;;;;;;;12.77;7.07;;;;;;;19.39;100.00;101827.34;5008032;28;20046;-72
2023/07/10 05:52:25;;;;;;;12.77;6.85;;;;;;;19.39;100.00;101830.78;5011997;28;20398;-73
2023/07/10 05:54:51;;;;;;;13.80;6.82;;;;;;;19.40;100.00;101837.66;5004050;28;20425;-71
2023/07/10 05:57:17;;;;;;;16.15;8.10;;;;;;;19.43;100.00;101839.09;5007752;28;20025;-71
2023/07/10 05:59:42;;;;;;;15.27;6.70;;;;;;;19.49;100.00;101843.59;5013220;28;20451;-74
2023/07/10 06:02:12;;;;;;;18.95;7.53;;;;;;;19.43;100.00;101839.09;5007564;28;20042;-72
2023/07/10 06:04:38;;;;;;;13.98;6.32;;;;;;;19.45;100.00;101837.09;5009160;28;20129;-72
2023/07/10 06:07:04;;;;;;;12.02;6.50;;;;;;;19.39;100.00;101840.50;5012539;28;20038;-72
2023/07/10 06:09:30;;;;;;;14.63;6.65;;;;;;;19.40;100.00;101837.66;5009632;28;20042;-72
2023/07/10 06:11:55;;;;;;;12.18;6.78;;;;;;;19.73;100.00;101846.84;5010698;28;20045;-72
2023/07/10 06:14:21;;;;;;;9.68;5.63;;;;;;;20.01;100.00;101845.00;5006668;28;20045;-72
2023/07/10 06:16:46;;;;;;;12.18;6.00;;;;;;;20.37;100.00;101843.19;5010982;28;20508;-73
2023/07/10 06:19:12;;;;;;;7.68;4.65;;;;;;;20.68;99.57;101840.09;5004536;28;20037;-72
2023/07/10 06:21:37;;;;;;;13.15;5.63;;;;;;;20.95;97.48;101846.25;5016703;28;20042;-73
2023/07/10 06:24:03;;;;;;;12.65;5.22;;;;;;;21.13;94.61;101845.66;5012295;28;20069;-74
2023/07/10 06:26:29;;;;;;;9.57;4.03;;;;;;;21.10;93.11;101843.44;5006124;28;20564;-73
2023/07/10 06:28:55;;;;;;;12.82;4.95;;;;;;;21.11;91.25;101845.03;5013308;28;20056;-73
2023/07/10 06:31:20;;;;;;;8.10;4.25;;;;;;;21.02;91.41;101840.16;5012939;28;20072;-72
2023/07/10 06:33:46;;;;;;;11.57;4.40;;;;;;;20.98;93.28;101842.38;5008450;28;20640;-74
2023/07/10 06:36:11;;;;;;;10.15;4.55;;;;;;;20.87;92.53;101845.59;4994002;28;20041;-73
2023/07/10 06:38:37;;;;;;;8.18;3.83;;;;;;;20.83;93.87;101847.00;5026122;28;21962;-72
2023/07/10 06:41:05;;;;;;;11.32;4.53;;;;;;;20.92;93.20;101859.00;5005908;28;20046;-75
2023/07/10 06:43:31;;;;;;;12.00;4.65;;;;;;;21.43;90.16;101852.38;5006683;28;20100;-74
2023/07/10 06:45:56;;;;;;;11.05;3.55;;;;;;;21.76;89.00;101855.03;5020632;28;20034;-73
2023/07/10 06:48:22;;;;;;;7.10;3.45;;;;;;;21.83;87.85;101850.56;4994126;28;20022;-73
2023/07/10 06:50:52;;;;;;;9.05;3.75;;;;;;;21.94;86.31;101847.31;5010911;28;20030;-74
2023/07/10 06:53:18;;;;;;;9.98;3.88;;;;;;;22.18;85.42;101847.63;5007964;28;20069;-74
2023/07/10 06:55:44;;;;;;;10.73;3.85;;;;;;;22.38;83.49;101844.97;5002676;28;20120;-74
2023/07/10 06:58:13;;;;;;;6.88;3.10;;;;;;;22.69;82.43;101846.03;5007203;28;20037;-74
2023/07/10 07:00:39;;;;;;;6.72;3.35;;;;;;;23.17;78.58;101850.03;5005611;28;20080;-75
2023/07/10 07:03:05;;;;;;;8.82;3.38;;;;;;;23.40;75.35;101850.25;5010339;28;20033;-73
2023/07/10 07:05:31;;;;;;;10.27;3.30;;;;;;;23.75;72.63;101844.44;5008902;28;20065;-74
2023/07/10 07:07:56;;;;;;;10.95;2.60;;;;;;;23.92;70.42;101850.00;5011530;28;20017;-76
2023/07/10 07:10:21;;;;;;;5.07;2.38;;;;;;;23.97;71.69;101857.31;5007408;28;20500;-73
2023/07/10 07:12:47;;;;;;;8.80;3.60;;;;;;;23.54;72.97;101856.25;5008127;28;20930;-74
2023/07/10 07:15:13;;;;;;;9.68;3.65;;;;;;;23.67;71.34;101855.31;4994693;28;20397;-75
2023/07/10 07:17:39;;;;;;;5.10;2.90;;;;;;;23.50;72.73;101861.16;4991159;28;20030;-75
2023/07/10 07:20:05;;;;;;;8.30;3.25;;;;;;;23.51;72.31;101860.16;5006612;28;20030;-75
2023/07/10 07:22:31;;;;;;;9.02;3.22;;;;;;;24.21;69.50;101863.56;5013415;28;20043;-74
2023/07/10 07:24:57;;;;;;;5.95;2.75;;;;;;;24.85;68.12;101859.50;4991604;28;20045;-76
2023/07/10 07:27:23;;;;;;;8.65;3.50;;;;;;;25.37;65.89;101860.78;5006988;28;20100;-75
2023/07/10 07:29:51;;;;;;;6.75;2.22;;;;;;;25.61;63.41;101864.25;5006979;28;20053;-74
2023/07/10 07:32:18;;;;;;;11.88;2.20;;;;;;;26.00;63.41;101867.28;5011119;28;20025;-77
2023/07/10 07:34:45;;;;;;;5.90;2.72;;;;;;;26.17;62.54;101870.00;5003044;28;20125;-76
2023/07/10 07:37:10;;;;;;;7.28;2.33;;;;;;;26.32;59.28;101870.31;5008013;28;20095;-79
2023/07/10 07:39:36;;;;;;;15.52;3.63;;;;;;;26.33;57.05;101869.25;5003484;28;20063;-76
2023/07/10 07:42:02;;;;;;;6.30;1.77;;;;;;;26.59;59.05;101867.94;5010327;28;20025;-75
2023/07/10 07:44:27;;;;;;;5.18;1.63;;;;;;;26.79;56.70;101867.50;5007047;28;20543;-75
2023/07/10 07:46:53;;;;;;;3.72;1.40;;;;;;;26.97;53.03;101863.84;5008228;28;20404;-76
2023/07/10 07:49:18;;;;;;;4.65;1.70;;;;;;;27.16;51.36;101864.41;5012215;28;20199;-77
2023/07/10 07:51:44;;;;;;;4.22;1.33;;;;;;;27.45;53.33;101868.88;5006792;28;20060;-75
2023/07/10 07:54:14;;;;;;;8.20;1.60;;;;;;;27.69;51.95;101862.28;5005848;28;20046;-75
2023/07/10 07:56:40;;;;;;;5.57;1.63;;;;;;;27.83;51.68;101864.59;4993716;28;20117;-74
2023/07/10 07:59:05;;;;;;;3.80;1.70;;;;;;;27.74;49.26;101872.19;5009573;28;20104;-75
2023/07/10 08:01:31;;;;;;;5.20;1.40;;;;;;;27.77;50.43;101861.06;5008049;28;20042;-78
2023/07/10 08:03:56;;;;;;;4.90;1.13;;;;;;;27.88;48.48;101867.34;5010259;28;20107;-76
2023/07/10 08:06:26;;;;;;;6.72;1.63;;;;;;;28.04;50.94;101863.81;5007480;28;20057;-76
2023/07/10 08:08:51;;;;;;;4.70;1.48;;;;;;;28.23;49.51;101866.19;5009435;28;20149;-77
2023/07/10 08:11:17;;;;;;;4.03;1.45;;;;;;;27.71;45.81;101862.03;4987357;28;20042;-76
2023/07/10 08:13:43;;;;;;;5.93;1.25;;;;;;;27.87;47.50;101863.03;5006380;28;20038;-77
2023/07/10 08:16:08;;;;;;;7.13;1.60;;;;;;;28.09;48.18;101861.22;5010707;28;20052;-78
2023/07/10 08:18:34;;;;;;;3.67;1.20;;;;;;;28.37;47.62;101864.75;5005424;28;20034;-77
2023/07/10 08:21:04;;;;;;;3.15;1.15;;;;;;;28.55;44.83;101863.63;5012297;28;20037;-77
2023/07/10 08:23:30;;;;;;;4.30;1.05;;;;;;;28.90;44.50;101862.34;5010407;28;20053;-78
2023/07/10 08:25:56;;;;;;;4.40;1.38;;;;;;;28.81;44.19;101856.66;5007170;28;20496;-75
2023/07/10 08:28:21;;;;;;;2.63;1.17;;;;;;;28.97;45.13;101859.47;5008981;28;20034;-77
2023/07/10 08:30:47;;;;;;;3.75;0.98;;;;;;;28.95;42.60;101859.72;5012690;28;20037;-76
2023/07/10 08:33:12;;;;;;;5.57;1.38;;;;;;;28.78;41.80;101853.69;5001324;28;20029;-80
2023/07/10 08:35:38;;;;;;;4.53;1.42;;;;;;;28.76;41.01;101848.59;5014876;28;20052;-79
2023/07/10 08:38:03;;;;;;;4.07;1.35;;;;;;;28.95;42.94;101862.38;5009770;28;20511;-79
2023/07/10 08:40:35;;;;;;;5.32;1.60;;;;;;;29.12;44.17;101855.06;5003917;28;20042;-81
2023/07/10 08:43:35;;;;;;;5.40;1.42;;;;;;;29.24;43.75;101854.91;5006783;28;20030;-79
2023/07/10 08:46:17;;;;;;;5.22;1.20;;;;;;;29.34;43.27;101848.81;4999990;28;21321;-80
2023/07/10 08:48:53;;;;;;;3.58;1.45;;;;;;;29.31;41.94;101850.16;4994784;28;20056;-76
2023/07/10 08:51:19;;;;;;;5.13;1.60;;;;;;;29.44;42.08;101842.75;5020800;28;20128;-80
2023/07/10 08:53:59;;;;;;;6.30;1.80;;;;;;;29.50;41.98;101844.41;5016415;28;20125;-80
2023/07/10 08:56:38;;;;;;;4.55;1.50;;;;;;;29.46;44.51;101849.44;5008915;28;20674;-77
2023/07/10 08:59:23;;;;;;;4.55;1.75;;;;;;;29.41;43.77;101846.75;4992800;28;20135;-79
2023/07/10 09:01:49;;;;;;;5.40;1.33;;;;;;;29.64;42.14;101847.41;5004760;28;20058;-77
2023/07/10 09:04:17;;;;;;;3.83;1.58;;;;;;;29.67;43.19;101844.22;4996012;28;20112;-78
2023/07/10 09:06:47;;;;;;;5.22;1.33;;;;;;;29.38;42.35;101846.44;5004477;28;20026;-77
2023/07/10 09:09:40;;;;;;;3.47;1.50;;;;;;;29.49;41.57;101848.13;5008471;28;20053;-76
2023/07/10 09:12:16;;;;;;;5.35;1.90;;;;;;;29.69;43.04;101839.41;5020344;28;20041;-78
2023/07/10 09:14:50;;;;;;;6.20;2.17;;;;;;;29.59;41.88;101845.53;5002720;28;20550;-79
2023/07/10 09:17:54;;;;;;;5.50;1.80;;;;;;;29.59;43.08;101842.84;5023541;28;20040;-79
2023/07/10 09:20:22;;;;;;;6.82;2.45;;;;;;;29.76;43.16;101844.53;4954915;28;20401;-79
2023/07/10 09:22:52;;;;;;;5.57;1.55;;;;;;;29.92;41.30;101846.22;4993892;28;20034;-78
2023/07/10 09:25:20;;;;;;;6.18;1.67;;;;;;;29.69;42.41;101845.56;4992250;28;20552;-75
2023/07/10 09:27:46;;;;;;;6.65;1.65;;;;;;;29.85;42.36;101838.44;5012257;28;20112;-79
2023/07/10 09:30:26;;;;;;;5.95;1.35;;;;;;;30.23;41.88;101838.28;5012933;28;20542;-77
2023/07/10 09:33:00;;;;;;;3.45;1.45;;;;;;;29.67;40.15;101844.22;5022792;28;20550;-77
2023/07/10 09:35:25;;;;;;;8.27;2.08;;;;;;;30.15;40.95;101839.63;5012513;28;20564;-78
2023/07/10 09:37:51;;;;;;;5.28;1.20;;;;;;;30.07;40.83;101835.59;5009250;28;20034;-76
2023/07/10 09:40:43;;;;;;;5.47;1.67;;;;;;;29.08;41.62;101835.28;4991096;28;20042;-76
2023/07/10 09:43:27;;;;;;;3.38;1.48;;;;;;;29.67;42.82;101826.31;5026786;28;20061;-81
2023/07/10 09:45:58;;;;;;;6.80;1.42;;;;;;;29.58;42.03;101841.22;5014849;28;20046;-79
2023/07/10 09:48:30;;;;;;;5.82;1.90;;;;;;;30.04;41.20;101837.97;5009932;28;20037;-76
2023/07/10 09:50:56;;;;;;;5.50;1.52;;;;;;;30.28;41.12;101835.66;5015063;28;20441;-77
2023/07/10 09:53:37;;;;;;;3.53;1.38;;;;;;;30.24;41.72;101835.38;5000347;28;20104;-81
2023/07/10 09:56:03;;;;;;;3.90;1.55;;;;;;;30.04;40.56;101837.97;5011834;28;20125;-79
2023/07/10 09:58:28;;;;;;;4.57;1.95;;;;;;;29.96;42.25;101828.59;4991582;28;20109;-80
2023/07/10 10:00:58;;;;;;;6.47;1.40;;;;;;;29.96;41.65;101833.94;5012232;28;20041;-75
2023/07/10 10:03:33;;;;;;;5.22;1.83;;;;;;;30.17;42.74;101831.34;5009967;28;20033;-77
2023/07/10 10:05:59;;;;;;;3.33;1.15;;;;;;;30.02;42.41;101830.22;5018605;28;20029;-78
2023/07/10 10:08:26;;;;;;;2.35;0.95;;;;;;;29.97;41.32;101824.88;5006362;28;20038;-80
2023/07/10 10:11:04;;;;;;;5.45;1.60;;;;;;;29.74;42.00;101828.75;5010589;28;20121;-75
2023/07/10 10:13:34;;;;;;;3.65;1.20;;;;;;;29.76;41.01;101834.69;5024371;28;20044;-76
2023/07/10 10:16:03;;;;;;;2.42;1.13;;;;;;;29.77;40.41;101836.28;5008315;28;20598;-77
2023/07/10 10:18:41;;;;;;;3.42;1.27;;;;;;;29.45;41.71;101839.03;5006037;28;20042;-79
2023/07/10 10:21:11;;;;;;;4.78;1.38;;;;;;;29.64;42.26;101836.72;5011315;28;20045;-77
2023/07/10 10:23:38;;;;;;;4.45;1.45;;;;;;;29.77;41.81;101830.13;5011887;28;20034;-79
2023/07/10 10:26:31;;;;;;;4.35;1.27;;;;;;;29.89;40.28;101828.03;5010442;28;20060;-77
2023/07/10 10:30:02;;;;;;;4.65;1.50;;;;;;;29.96;41.04;101825.91;5017580;28;20404;-75
2023/07/10 10:33:03;;;;;;;3.25;1.60;;;;;;;29.84;41.05;101822.69;4896292;29;20135;-78
2023/07/10 10:35:48;;;;;;;4.90;1.40;;;;;;;29.54;41.72;101826.78;5007138;28;20560;-78
2023/07/10 10:38:35;;;;;;;3.20;1.63;;;;;;;29.75;41.25;101829.59;5011271;28;20121;-76
2023/07/10 10:41:59;;;;;;;5.97;1.80;;;;;;;29.66;42.88;101818.56;5013531;28;20068;-76
2023/07/10 10:44:51;;;;;;;3.28;1.00;;;;;;;29.56;40.70;101821.97;4964378;28;20069;-74
2023/07/10 10:47:49;;;;;;;5.88;2.05;;;;;;;29.35;40.07;101820.25;4966009;28;20031;-76
2023/07/10 10:50:18;;;;;;;6.60;1.20;;;;;;;29.50;41.98;101826.50;5002232;28;20053;-79
2023/07/10 10:52:49;;;;;;;2.40;1.10;;;;;;;29.43;40.39;101827.78;5013861;28;20510;-75
2023/07/10 10:55:37;;;;;;;4.22;1.30;;;;;;;29.53;41.01;101824.38;5013751;28;20539;-80
2023/07/10 10:58:25;;;;;;;3.90;1.23;;;;;;;29.53;41.69;101830.50;5007912;28;20035;-75
2023/07/10 11:01:18;;;;;;;5.35;1.50;;;;;;;29.50;41.21;101826.50;5005085;28;20548;-77
2023/07/10 11:03:52;;;;;;;5.03;1.33;;;;;;;29.91;41.06;101833.13;5023883;28;20048;-76
2023/07/10 11:06:44;;;;;;;6.85;1.17;;;;;;;29.76;41.11;101828.50;5006675;28;20034;-77
2023/07/10 11:09:25;;;;;;;4.85;1.40;;;;;;;30.00;39.05;101829.69;5009993;28;20049;-76
2023/07/10 11:11:51;;;;;;;5.80;1.42;;;;;;;29.86;40.04;101825.91;5007976;28;20156;-78
2023/07/10 11:14:17;;;;;;;4.18;1.25;;;;;;;29.91;41.50;101819.75;5011674;28;20053;-78
2023/07/10 11:16:44;;;;;;;4.55;1.25;;;;;;;29.58;40.47;101817.19;5009661;28;20378;-77
2023/07/10 11:19:19;;;;;;;4.25;1.38;;;;;;;29.43;40.09;101819.78;5008788;28;20072;-76
2023/07/10 11:21:45;;;;;;;3.38;1.20;;;;;;;29.33;40.07;101819.69;5005936;28;20038;-77
2023/07/10 11:24:23;;;;;;;3.28;1.30;;;;;;;29.66;40.38;101816.69;5013800;28;20420;-77